Terminal Aerodrome Forecast
Issued by NWS

Home | Current Version | Previous Version | Text Only | Print | Product List | Glossary On
Versions: 1 2 3 4 5 6 7 8 9 10 11 12 13 14 15
046
FTUS46 KSGX 222115 AAA
TAFSNA
TAF AMD
KSNA 222115Z 2221/2318 11009KT 4SM -RA BR SCT008 BKN025 OVC040
      TEMPO 2221/2222 1 1/2SM RA BR
     FM222200 18020G30KT 4SM -RA BR SCT008 BKN015 OVC040
      TEMPO 2222/2302 1SM +SHRA BR BKN008
     FM230300 22012G25KT 4SM -SHRA BR SCT008 BKN015 OVC040
     FM230900 20018G25KT 6SM -SHRA BR SCT015 BKN030 OVC050=

USA.gov is the U.S. government's official web portal to all federal, state and local government web resources and services.